Pireps
You are here: Olympic Virtual Pireps

Flight OLY902

  • Submitted By: Stavros Sarikas
  • Departure Airport: Eleftherios Venizelos International Airport (LGAV)
  • Arrival Airport: Thessaloniki Macedonia International Airport (LGTS)
  • Aircraft: A320-200 (SX-OAU)
  • Flight Time: 00.50
  • Date Submitted: 15/08/2017
  • Route: NEVRA Z507 OSMOS
  • Status: Rejected
Flight Details
Gross Revenue:
(116 load / € 60.00 per unit
€ 6, 960.00
Fuel Cost:
(290 fuel used @ 0.19 / unit)
€ 55.10

Additional Log Information:

View Log

Aircraft Used in flight is Airbus A320 British Airways G-EUUU
23:34 Boarding
23:34 Navigation Lights ON at 320 Feet
23:34 Beacon Lights ON at 320 Feet
23:34 Brakes are On
23:36 In Air Refuel Suspected
23:38 Engine 2 Started
23:39 Engine 1 Started
23:40 Brakes are Released
23:40 Pushing back
23:41 Flaps 3 Selected at 320ft and 0kts
23:41 Taxi Lights ON at 320 Feet
23:43 Landing Lights ON at 320 AGL
23:43 Strobe Lights ON at 320 Feet
23:44 You Took off @ 145 Knots and Flaps at Position 3 With a heading of 37 Degrees
Departure Weather LGAV 152020Z 23003KT CAVOK 24/12 Q1014 NOSIG
Departure Coordinates 37.938645742897/ 23.9577123240792
Takeoff Weight=58654KG Fuel Weight=3809KG
23:44 Paused
23:44 Unpaused
23:44 Landing Gear Up @ 157 Knots and 380 Feet
23:45 Taxi Lights OFF at 400 Feet
23:45 You exceeded maximum bank angle
23:45 Flaps 2 Selected at 1420ft and 155kts
23:45 Flaps 0 Selected at 1730ft and 183kts
23:48 Above FL100 you need to switch of the landing lights
23:48 Landing Lights OFF at 10300 AGL
23:55 TOC Reached
00:14 Landing Lights ON at 9810 AGL
00:16 Below 10000 feet you are not allowed to go over 250 knots
00:20 Flaps 1 Selected at 1610ft and 224kts
00:21 Flaps 3 Selected at 1600ft and 194kts
00:21 Landing Gear Down @ 188 Knots and 1580 Feet
00:21 Flaps 4 Selected at 1500ft and 170kts
00:21 Taxi Lights ON at 1490 Feet
00:21 Flaps 5 Selected at 1470ft and 161kts
00:24 You Landed @ 120 Knots with -797 Vertical Speed With a heading of 346 and with 5.1024 G Force
Arrival Weather: LGTS 152050Z 00000KT 9999 FEW030 25/16 Q1014 NOSIG
Arrival Coordinates 40.5097741624831/ 22.9740764743109
Landing Weight=57020KG Fuel Weight=2176KG
00:24 Your Landing was very hard
00:24 Paused
00:24 Taxiing to gate
00:25 Landing Lights OFF at 40 AGL
00:25 Strobe Lights OFF at 40 Feet
00:25 Flaps 0 Selected at 40ft and 32kts
00:25 Brakes are On
00:25 Unpaused
Pirep logged with OA Virtual Tracking 1.0.2.3

Comments

Commenter Comment
Orestis Aggelakis Your Pirep has been rejected because you exeeded maximum landing rate of-600

Route Map